createdAt,value
2018-03-17T00:01:50.051Z,51.30
2018-03-17T00:04:18.338Z,51.40
2018-03-17T00:06:48.066Z,51.30
2018-03-17T00:09:16.601Z,51.20
2018-03-17T00:11:45.035Z,51.40
2018-03-17T00:14:13.152Z,51.40
2018-03-17T00:16:41.246Z,51.20
2018-03-17T00:19:09.283Z,51.20
2018-03-17T00:21:37.359Z,51.20
2018-03-17T00:24:07.621Z,51.30
2018-03-17T00:26:35.969Z,51.20
2018-03-17T00:29:05.234Z,51.20
2018-03-17T00:31:33.288Z,51.10
2018-03-17T00:34:01.333Z,52.20
2018-03-17T00:36:29.413Z,51.30
2018-03-17T00:38:58.216Z,51.50
2018-03-17T00:41:26.259Z,51.50
2018-03-17T00:43:54.333Z,51.20
2018-03-17T00:46:22.393Z,51.40
2018-03-17T00:48:50.482Z,51.20
2018-03-17T00:51:18.527Z,51.60
2018-03-17T00:53:46.593Z,51.40
2018-03-17T00:56:14.625Z,51.50
2018-03-17T00:58:42.658Z,51.50
2018-03-17T01:01:11.485Z,51.50
2018-03-17T01:03:39.534Z,51.50
2018-03-17T01:06:07.564Z,51.70
2018-03-17T01:08:37.121Z,51.80
2018-03-17T01:11:05.171Z,51.70
2018-03-17T01:13:33.222Z,51.30
2018-03-17T01:16:02.777Z,51.50
2018-03-17T01:18:33.800Z,51.40
2018-03-17T01:21:04.138Z,51.50
2018-03-17T01:23:45.060Z,51.00
2018-03-17T01:26:19.412Z,51.50
2018-03-17T01:28:52.538Z,51.50
2018-03-17T01:31:26.498Z,51.70
2018-03-17T01:34:09.316Z,51.20
2018-03-17T01:36:38.163Z,51.60
2018-03-17T01:39:07.124Z,52.00
2018-03-17T01:41:35.164Z,51.10
2018-03-17T01:44:03.211Z,51.40
2018-03-17T01:46:31.478Z,51.60
2018-03-17T01:48:59.492Z,51.30
2018-03-17T01:51:27.532Z,50.90
2018-03-17T01:53:56.900Z,51.40
2018-03-17T01:56:25.071Z,50.90
2018-03-17T01:58:53.892Z,50.70
2018-03-17T02:01:22.162Z,50.60
2018-03-17T02:03:50.238Z,50.30
2018-03-17T02:06:18.254Z,51.40
2018-03-17T02:08:46.312Z,50.90
2018-03-17T02:11:14.658Z,50.70
2018-03-17T02:13:42.700Z,51.50
2018-03-17T02:16:10.738Z,51.10
2018-03-17T02:18:38.768Z,51.30
2018-03-17T02:21:06.815Z,50.80
2018-03-17T02:23:34.853Z,51.20
2018-03-17T02:26:02.874Z,50.90
2018-03-17T02:28:30.915Z,51.30
2018-03-17T02:30:58.933Z,50.60
2018-03-17T02:33:26.982Z,50.40
2018-03-17T02:35:55.047Z,51.10
2018-03-17T02:38:23.088Z,51.00
2018-03-17T02:40:51.171Z,51.00
2018-03-17T02:43:19.199Z,51.00
2018-03-17T02:45:49.488Z,50.90
2018-03-17T02:48:17.507Z,50.60
2018-03-17T02:50:45.546Z,50.40
2018-03-17T02:53:13.618Z,50.10
2018-03-17T02:55:41.648Z,50.60
2018-03-17T02:58:09.928Z,51.00
2018-03-17T03:00:39.347Z,50.60
2018-03-17T03:03:07.407Z,50.90
2018-03-17T03:05:36.393Z,51.30
2018-03-17T03:08:05.549Z,50.50
2018-03-17T03:10:34.721Z,50.50
2018-03-17T03:13:04.521Z,50.90
2018-03-17T03:15:33.329Z,50.80
2018-03-17T03:18:01.393Z,50.80
2018-03-17T03:20:29.416Z,50.80
2018-03-17T03:22:57.449Z,50.70
2018-03-17T03:25:25.483Z,51.10
2018-03-17T03:27:54.653Z,51.40
2018-03-17T03:30:22.738Z,51.30
2018-03-17T03:32:50.779Z,51.20
2018-03-17T03:35:18.813Z,50.40
2018-03-17T03:37:47.181Z,50.60
2018-03-17T03:40:15.197Z,51.50
2018-03-17T03:42:43.263Z,50.70
2018-03-17T03:45:11.297Z,50.90
2018-03-17T03:47:40.097Z,50.70
2018-03-17T03:50:08.120Z,50.70
2018-03-17T03:52:36.146Z,50.80
2018-03-17T03:55:04.213Z,51.10
2018-03-17T03:57:32.229Z,51.20
2018-03-17T04:00:00.697Z,50.70
2018-03-17T04:02:28.944Z,51.30
2018-03-17T04:04:56.984Z,51.30
2018-03-17T04:07:25.314Z,50.50
2018-03-17T04:09:53.361Z,50.80
2018-03-17T04:12:21.378Z,50.60
2018-03-17T04:14:49.416Z,51.00
2018-03-17T04:17:17.460Z,50.90
2018-03-17T04:19:45.505Z,50.80
2018-03-17T04:22:13.532Z,51.00
2018-03-17T04:24:41.575Z,51.70
2018-03-17T04:27:09.620Z,50.70
2018-03-17T04:29:37.676Z,51.00
2018-03-17T04:32:05.770Z,51.00
2018-03-17T04:34:34.794Z,51.00
2018-03-17T04:37:03.590Z,50.90
2018-03-17T04:39:31.627Z,50.90
2018-03-17T04:41:59.659Z,51.30
2018-03-17T04:44:27.960Z,50.90
2018-03-17T04:46:55.997Z,51.00
2018-03-17T04:49:24.048Z,51.20
2018-03-17T04:51:52.844Z,50.90
2018-03-17T04:54:20.875Z,50.90
2018-03-17T04:56:51.796Z,51.00
2018-03-17T04:59:20.372Z,50.80
2018-03-17T05:01:48.413Z,51.00
2018-03-17T05:04:16.456Z,50.90
2018-03-17T05:06:44.515Z,51.00
2018-03-17T05:09:13.040Z,51.20
2018-03-17T05:11:41.101Z,51.10
2018-03-17T05:14:09.174Z,50.30
2018-03-17T05:16:37.226Z,50.20
2018-03-17T05:19:05.249Z,50.20
2018-03-17T05:21:33.306Z,50.10
2018-03-17T05:24:02.115Z,50.00
2018-03-17T05:26:30.927Z,50.30
2018-03-17T05:28:58.967Z,50.30
2018-03-17T05:31:26.999Z,49.90
2018-03-17T05:33:55.047Z,49.90
2018-03-17T05:36:23.112Z,49.70
2018-03-17T05:38:51.151Z,49.70
2018-03-17T05:41:19.751Z,49.60
2018-03-17T05:43:47.802Z,49.50
2018-03-17T05:46:15.848Z,49.30
2018-03-17T05:48:43.923Z,49.30
2018-03-17T05:51:12.731Z,49.20
2018-03-17T05:53:40.770Z,49.10
2018-03-17T05:56:08.814Z,49.20
2018-03-17T05:58:36.834Z,49.20
2018-03-17T06:01:04.924Z,49.10
2018-03-17T06:03:33.629Z,49.10
2018-03-17T06:06:01.652Z,49.00
2018-03-17T06:08:29.721Z,48.90
2018-03-17T06:10:57.766Z,48.90
2018-03-17T06:13:25.798Z,48.90
2018-03-17T06:15:55.144Z,49.00
2018-03-17T06:18:23.164Z,49.00
2018-03-17T06:20:51.253Z,49.00
2018-03-17T06:23:19.288Z,49.10
2018-03-17T06:25:47.359Z,49.00
2018-03-17T06:28:15.400Z,49.10
2018-03-17T06:30:43.482Z,49.00
2018-03-17T06:33:12.632Z,48.10
2018-03-17T06:35:42.064Z,47.50
2018-03-17T06:38:10.103Z,47.40
2018-03-17T06:40:38.135Z,47.20
2018-03-17T06:43:06.164Z,47.40
2018-03-17T06:45:34.240Z,47.30
2018-03-17T06:48:02.272Z,47.50
2018-03-17T06:50:30.319Z,47.60
2018-03-17T06:52:58.377Z,47.40
2018-03-17T06:55:26.487Z,47.30
2018-03-17T06:57:54.647Z,47.30
2018-03-17T07:00:22.683Z,47.00
2018-03-17T07:02:50.874Z,47.10
2018-03-17T07:05:18.936Z,45.90
2018-03-17T07:07:46.996Z,45.00
2018-03-17T07:10:15.052Z,46.40
2018-03-17T07:12:43.882Z,40.80
2018-03-17T07:15:11.940Z,40.70
2018-03-17T07:17:40.003Z,35.90
2018-03-17T07:20:08.115Z,40.60
2018-03-17T07:22:36.934Z,44.90
2018-03-17T07:25:04.995Z,44.70
2018-03-17T07:27:33.078Z,45.20
2018-03-17T07:30:01.139Z,45.50
2018-03-17T07:32:29.201Z,45.60
2018-03-17T07:34:57.598Z,45.70
2018-03-17T07:37:25.653Z,45.70
2018-03-17T07:39:53.713Z,46.00
2018-03-17T07:42:21.737Z,46.70
2018-03-17T07:44:49.824Z,46.00
2018-03-17T07:47:17.869Z,46.20
2018-03-17T07:49:45.909Z,46.10
2018-03-17T07:52:14.483Z,45.20
2018-03-17T07:54:43.348Z,44.70
2018-03-17T07:57:11.394Z,44.00
2018-03-17T07:59:39.451Z,43.10
2018-03-17T08:02:07.494Z,43.40
2018-03-17T08:04:35.565Z,45.90
2018-03-17T08:07:03.608Z,45.90
2018-03-17T08:09:31.663Z,44.40
2018-03-17T08:11:59.712Z,42.70
2018-03-17T08:14:27.826Z,43.30
2018-03-17T08:16:55.858Z,42.40
2018-03-17T08:19:23.917Z,42.50
2018-03-17T08:21:52.737Z,44.20
2018-03-17T08:24:20.803Z,44.20
2018-03-17T08:26:49.057Z,44.20
2018-03-17T08:29:17.321Z,44.70
2018-03-17T08:31:45.394Z,45.40
2018-03-17T08:34:13.460Z,44.70
2018-03-17T08:36:41.507Z,45.00
2018-03-17T08:39:09.624Z,45.80
2018-03-17T08:41:38.725Z,46.40
2018-03-17T08:44:06.760Z,46.40
2018-03-17T08:46:34.787Z,46.60
2018-03-17T08:49:03.881Z,44.80
2018-03-17T08:51:31.967Z,45.20
2018-03-17T08:54:00.031Z,44.80
2018-03-17T08:56:28.073Z,45.40
2018-03-17T08:58:56.906Z,46.60
2018-03-17T09:01:24.934Z,46.60
2018-03-17T09:03:52.961Z,47.20
2018-03-17T09:06:21.022Z,47.00
2018-03-17T09:08:49.058Z,47.30
2018-03-17T09:11:17.844Z,47.10
2018-03-17T09:13:45.883Z,47.10
2018-03-17T09:16:13.925Z,47.00
2018-03-17T09:18:41.970Z,47.00
2018-03-17T09:21:10.036Z,42.00
2018-03-17T09:23:39.193Z,45.30
2018-03-17T09:26:08.025Z,44.80
2018-03-17T09:28:37.174Z,44.70
2018-03-17T09:31:05.239Z,43.60
2018-03-17T09:33:33.270Z,44.60
2018-03-17T09:36:01.299Z,45.10
2018-03-17T09:38:29.372Z,45.80
2018-03-17T09:40:58.400Z,45.90
2018-03-17T09:43:26.403Z,46.10
2018-03-17T09:45:54.450Z,45.90
2018-03-17T09:48:22.509Z,45.70
2018-03-17T09:50:50.548Z,45.80
2018-03-17T09:53:19.100Z,45.90
2018-03-17T09:55:47.187Z,46.10
2018-03-17T09:58:15.291Z,43.50
2018-03-17T10:00:43.325Z,44.70
2018-03-17T10:03:11.396Z,45.10
2018-03-17T10:05:39.576Z,42.30
2018-03-17T10:08:07.632Z,43.30
2018-03-17T10:10:35.687Z,44.10
2018-03-17T10:13:03.759Z,44.20
2018-03-17T10:15:31.816Z,44.80
2018-03-17T10:17:59.850Z,44.60
2018-03-17T10:20:27.941Z,44.70
2018-03-17T10:22:55.980Z,44.50
2018-03-17T10:25:24.147Z,45.10
2018-03-17T10:27:52.211Z,45.20
2018-03-17T10:30:20.287Z,45.20
2018-03-17T10:32:48.366Z,45.50
2018-03-17T10:35:16.423Z,45.30
2018-03-17T10:37:44.513Z,45.00
2018-03-17T10:40:12.561Z,45.30
2018-03-17T10:42:40.613Z,45.10
2018-03-17T10:45:08.700Z,44.20
2018-03-17T10:47:36.755Z,44.60
2018-03-17T10:50:04.823Z,45.10
2018-03-17T10:52:37.205Z,44.40
2018-03-17T10:55:06.724Z,46.10
2018-03-17T10:57:34.831Z,44.80
2018-03-17T11:00:02.922Z,45.10
2018-03-17T11:02:32.734Z,45.10
2018-03-17T11:05:00.817Z,46.40
2018-03-17T11:07:28.968Z,46.00
2018-03-17T11:09:57.065Z,46.10
2018-03-17T11:12:25.082Z,46.60
2018-03-17T11:14:53.129Z,45.60
2018-03-17T11:17:21.944Z,45.50
2018-03-17T11:19:50.756Z,45.70
2018-03-17T11:22:18.793Z,45.70
2018-03-17T11:24:46.856Z,45.90
2018-03-17T11:27:14.925Z,46.00
2018-03-17T11:29:44.574Z,46.60
2018-03-17T11:32:12.592Z,46.20
2018-03-17T11:34:41.404Z,46.60
2018-03-17T11:37:09.456Z,46.60
2018-03-17T11:39:37.494Z,46.20
2018-03-17T11:42:05.564Z,46.80
2018-03-17T11:44:33.606Z,46.70
2018-03-17T11:47:01.694Z,46.80
2018-03-17T11:49:29.822Z,45.50
2018-03-17T11:51:57.860Z,46.30
2018-03-17T11:54:26.840Z,47.00
2018-03-17T11:56:54.904Z,47.00
2018-03-17T11:59:22.951Z,46.80
2018-03-17T12:01:51.019Z,47.30
2018-03-17T12:04:19.072Z,47.00
2018-03-17T12:06:47.563Z,46.80
2018-03-17T12:09:16.380Z,46.90
2018-03-17T12:11:44.454Z,46.80
2018-03-17T12:14:12.508Z,47.10
2018-03-17T12:16:41.124Z,46.90
2018-03-17T12:19:09.206Z,47.10
2018-03-17T12:21:37.424Z,46.50
2018-03-17T12:24:05.454Z,47.10
2018-03-17T12:26:33.487Z,46.60
2018-03-17T12:29:01.510Z,46.40
2018-03-17T12:31:29.575Z,45.70
2018-03-17T12:33:57.637Z,45.70
2018-03-17T12:36:25.685Z,44.20
2018-03-17T12:38:54.645Z,45.00
2018-03-17T12:41:23.445Z,46.20
2018-03-17T12:43:51.519Z,46.20
2018-03-17T12:46:20.567Z,46.20
2018-03-17T12:48:49.811Z,46.00
2018-03-17T12:51:18.661Z,46.50
2018-03-17T12:53:46.722Z,46.40
2018-03-17T12:56:15.203Z,46.30
2018-03-17T12:58:43.231Z,46.50
2018-03-17T13:01:11.292Z,46.60
2018-03-17T13:03:39.360Z,46.20
2018-03-17T13:06:07.415Z,46.50
2018-03-17T13:08:35.458Z,46.40
2018-03-17T13:11:03.493Z,47.00
2018-03-17T13:13:32.076Z,46.90
2018-03-17T13:16:00.120Z,46.70
2018-03-17T13:18:28.177Z,46.80
2018-03-17T13:20:56.257Z,47.00
2018-03-17T13:23:24.614Z,46.90
2018-03-17T13:25:52.682Z,47.00
2018-03-17T13:28:20.737Z,46.90
2018-03-17T13:30:49.560Z,47.00
2018-03-17T13:33:17.624Z,46.90
2018-03-17T13:35:45.665Z,46.10
2018-03-17T13:38:13.725Z,47.00
2018-03-17T13:40:42.542Z,46.60
2018-03-17T13:43:11.046Z,46.50
2018-03-17T13:45:39.253Z,46.90
2018-03-17T13:48:07.299Z,46.90
2018-03-17T13:50:35.653Z,46.90
2018-03-17T13:53:03.687Z,46.80
2018-03-17T13:55:31.761Z,47.20
2018-03-17T13:57:59.821Z,46.80
2018-03-17T14:00:27.878Z,46.60
2018-03-17T14:02:57.426Z,46.40
2018-03-17T14:05:25.523Z,46.40
2018-03-17T14:07:53.567Z,46.20
2018-03-17T14:10:21.598Z,46.40
2018-03-17T14:12:50.046Z,46.40
2018-03-17T14:15:18.314Z,46.60
2018-03-17T14:17:46.397Z,46.50
2018-03-17T14:20:14.557Z,46.40
2018-03-17T14:22:42.635Z,46.50
2018-03-17T14:25:10.690Z,46.50
2018-03-17T14:27:38.763Z,46.20
2018-03-17T14:30:06.812Z,46.00
2018-03-17T14:32:34.862Z,46.30
2018-03-17T14:35:02.908Z,46.30
2018-03-17T14:37:31.728Z,46.20
2018-03-17T14:39:59.771Z,46.20
2018-03-17T14:42:27.858Z,46.10
2018-03-17T14:44:55.900Z,46.30
2018-03-17T14:47:23.960Z,46.60
2018-03-17T14:49:51.987Z,46.60
2018-03-17T14:52:20.079Z,46.50
2018-03-17T14:54:48.910Z,46.90
2018-03-17T14:57:16.966Z,46.90
2018-03-17T14:59:45.818Z,46.80
2018-03-17T15:02:13.933Z,46.40
2018-03-17T15:04:42.032Z,46.70
2018-03-17T15:07:10.121Z,46.50
2018-03-17T15:09:38.188Z,46.90
2018-03-17T15:12:06.261Z,46.70
2018-03-17T15:14:34.314Z,46.90
2018-03-17T15:17:02.373Z,46.90
2018-03-17T15:19:30.458Z,46.50
2018-03-17T15:21:58.526Z,46.50
2018-03-17T15:24:26.632Z,46.40
2018-03-17T15:26:54.724Z,46.80
2018-03-17T15:29:22.764Z,46.70
2018-03-17T15:31:50.828Z,46.80
2018-03-17T15:34:18.876Z,46.70
2018-03-17T15:36:47.068Z,46.90
2018-03-17T15:39:15.112Z,47.10
2018-03-17T15:41:43.844Z,46.80
2018-03-17T15:44:11.924Z,46.90
2018-03-17T15:46:39.994Z,46.80
2018-03-17T15:49:08.105Z,46.60
2018-03-17T15:51:36.163Z,47.00
2018-03-17T15:54:04.954Z,46.70
2018-03-17T15:56:33.056Z,46.60
2018-03-17T15:59:01.123Z,46.50
2018-03-17T16:01:29.175Z,46.80
2018-03-17T16:03:57.263Z,46.50
2018-03-17T16:06:25.295Z,46.40
2018-03-17T16:08:53.379Z,46.40
2018-03-17T16:11:21.458Z,46.40
2018-03-17T16:13:49.514Z,46.40
2018-03-17T16:16:20.038Z,46.10
2018-03-17T16:18:49.697Z,46.00
2018-03-17T16:21:17.792Z,46.20
2018-03-17T16:23:45.795Z,46.10
2018-03-17T16:26:14.245Z,46.80
2018-03-17T16:28:44.245Z,46.50
2018-03-17T16:31:12.335Z,46.30
2018-03-17T16:33:40.747Z,46.40
2018-03-17T16:36:08.823Z,46.50
2018-03-17T16:38:36.872Z,45.90
2018-03-17T16:41:04.937Z,46.00
2018-03-17T16:43:32.975Z,46.60
2018-03-17T16:46:02.502Z,46.60
2018-03-17T16:48:30.601Z,46.60
2018-03-17T16:50:58.684Z,46.40
2018-03-17T16:53:26.749Z,46.60
2018-03-17T16:55:55.383Z,46.10
2018-03-17T16:58:23.484Z,45.10
2018-03-17T17:00:51.549Z,44.70
2018-03-17T17:03:21.527Z,45.70
2018-03-17T17:05:49.493Z,45.50
2018-03-17T17:08:17.638Z,45.90
2018-03-17T17:10:45.640Z,46.30
2018-03-17T17:13:13.755Z,46.30
2018-03-17T17:15:43.312Z,45.60
2018-03-17T17:18:11.373Z,46.20
2018-03-17T17:20:39.420Z,46.40
2018-03-17T17:23:07.464Z,45.50
2018-03-17T17:25:35.533Z,45.80
2018-03-17T17:28:03.581Z,45.70
2018-03-17T17:30:31.664Z,46.30
2018-03-17T17:33:00.607Z,46.60
2018-03-17T17:35:28.633Z,46.70
2018-03-17T17:37:56.703Z,45.90
2018-03-17T17:40:24.982Z,46.80
2018-03-17T17:42:53.514Z,47.10
2018-03-17T17:45:21.788Z,46.90
2018-03-17T17:47:49.846Z,46.60
2018-03-17T17:50:17.886Z,46.50
2018-03-17T17:52:46.754Z,42.90
2018-03-17T17:55:15.438Z,44.50
2018-03-17T17:57:43.493Z,46.90
2018-03-17T18:00:11.539Z,46.20
2018-03-17T18:02:39.616Z,45.70
2018-03-17T18:05:07.669Z,46.40
2018-03-17T18:07:35.733Z,46.80
2018-03-17T18:10:03.803Z,46.50
2018-03-17T18:12:31.879Z,46.30
2018-03-17T18:14:59.961Z,46.10
2018-03-17T18:17:28.008Z,46.20
2018-03-17T18:19:56.052Z,45.90
2018-03-17T18:22:24.927Z,46.00
2018-03-17T18:24:52.974Z,45.90
2018-03-17T18:27:21.030Z,45.50
2018-03-17T18:29:49.072Z,45.30
2018-03-17T18:32:17.195Z,45.10
2018-03-17T18:34:45.253Z,45.60
2018-03-17T18:37:13.348Z,46.10
2018-03-17T18:39:41.421Z,46.20
2018-03-17T18:42:09.488Z,45.50
2018-03-17T18:44:37.537Z,46.10
2018-03-17T18:47:07.262Z,46.60
2018-03-17T18:49:35.319Z,46.00
2018-03-17T18:52:03.429Z,46.10
2018-03-17T18:54:32.277Z,45.90
2018-03-17T18:57:01.164Z,46.60
2018-03-17T18:59:29.196Z,46.50
2018-03-17T19:01:57.237Z,46.20
2018-03-17T19:04:25.988Z,45.90
2018-03-17T19:06:54.020Z,45.80
2018-03-17T19:09:22.448Z,45.10
2018-03-17T19:11:51.243Z,45.20
2018-03-17T19:14:19.274Z,45.20
2018-03-17T19:16:47.324Z,46.40
2018-03-17T19:19:15.381Z,45.50
2018-03-17T19:21:43.421Z,45.80
2018-03-17T19:24:11.482Z,45.80
2018-03-17T19:26:39.571Z,46.30
2018-03-17T19:29:07.651Z,45.80
2018-03-17T19:31:35.725Z,45.50
2018-03-17T19:34:03.801Z,45.30
2018-03-17T19:36:31.901Z,45.40
2018-03-17T19:38:59.935Z,45.50
2018-03-17T19:41:28.002Z,45.30
2018-03-17T19:43:56.779Z,45.80
2018-03-17T19:46:24.813Z,45.80
2018-03-17T19:48:52.834Z,45.40
2018-03-17T19:51:20.909Z,45.60
2018-03-17T19:53:49.268Z,45.60
2018-03-17T19:56:17.309Z,45.30
2018-03-17T19:58:45.373Z,45.80
2018-03-17T20:01:13.948Z,45.30
2018-03-17T20:03:41.989Z,44.20
2018-03-17T20:06:10.084Z,45.00
2018-03-17T20:08:38.132Z,44.70
2018-03-17T20:11:06.180Z,45.30
2018-03-17T20:13:34.989Z,45.20
2018-03-17T20:16:03.030Z,45.20
2018-03-17T20:18:31.090Z,44.90
2018-03-17T20:20:59.188Z,44.50
2018-03-17T20:23:28.394Z,45.00
2018-03-17T20:25:56.445Z,44.20
2018-03-17T20:28:24.494Z,44.60
2018-03-17T20:30:52.556Z,44.10
2018-03-17T20:33:21.722Z,44.60
2018-03-17T20:35:49.888Z,44.60
2018-03-17T20:38:17.920Z,44.40
2018-03-17T20:40:45.984Z,43.50
2018-03-17T20:43:14.027Z,43.90
2018-03-17T20:45:42.095Z,44.20
2018-03-17T20:48:10.136Z,44.20
2018-03-17T20:50:38.206Z,44.10
2018-03-17T20:53:06.272Z,44.20
2018-03-17T20:55:34.327Z,44.10
2018-03-17T20:58:02.399Z,44.40
2018-03-17T21:00:30.453Z,44.00
2018-03-17T21:02:58.540Z,44.10
2018-03-17T21:05:27.789Z,43.80
2018-03-17T21:07:55.824Z,44.00
2018-03-17T21:10:23.871Z,43.90
2018-03-17T21:12:51.923Z,43.40
2018-03-17T21:15:20.000Z,43.90
2018-03-17T21:17:49.452Z,43.80
2018-03-17T21:20:17.505Z,43.90
2018-03-17T21:22:47.074Z,44.00
2018-03-17T21:25:15.164Z,43.90
2018-03-17T21:27:43.222Z,43.70
2018-03-17T21:30:11.265Z,43.60
2018-03-17T21:32:39.398Z,43.40
2018-03-17T21:35:07.426Z,43.40
2018-03-17T21:37:35.491Z,43.20
2018-03-17T21:40:03.593Z,43.00
2018-03-17T21:42:31.724Z,42.20
2018-03-17T21:44:59.757Z,42.70
2018-03-17T21:47:27.816Z,40.10
2018-03-17T21:49:55.882Z,40.00
2018-03-17T21:52:23.934Z,37.20
2018-03-17T21:54:52.005Z,37.70
2018-03-17T21:57:20.062Z,39.90
2018-03-17T21:59:48.141Z,40.60
2018-03-17T22:02:16.271Z,42.00
2018-03-17T22:04:44.543Z,42.50
2018-03-17T22:07:12.604Z,43.00
2018-03-17T22:09:40.666Z,43.10
2018-03-17T22:12:08.713Z,42.90
2018-03-17T22:14:36.766Z,42.30
2018-03-17T22:17:04.809Z,42.30
2018-03-17T22:19:32.883Z,41.80
2018-03-17T22:22:01.190Z,42.10
2018-03-17T22:24:29.486Z,42.00
2018-03-17T22:26:57.786Z,42.00
2018-03-17T22:29:25.882Z,42.60
2018-03-17T22:31:53.956Z,41.30
2018-03-17T22:34:21.981Z,41.60
2018-03-17T22:36:50.000Z,41.30
2018-03-17T22:39:18.044Z,42.70
2018-03-17T22:41:46.080Z,42.40
2018-03-17T22:44:14.872Z,43.70
2018-03-17T22:46:43.165Z,43.70
2018-03-17T22:49:11.201Z,43.90
2018-03-17T22:51:39.254Z,44.00
2018-03-17T22:54:07.322Z,44.20
2018-03-17T22:56:35.379Z,44.30
2018-03-17T22:59:03.441Z,44.70
2018-03-17T23:01:31.501Z,44.50
2018-03-17T23:03:59.558Z,44.50
2018-03-17T23:06:27.616Z,44.60
2018-03-17T23:08:56.450Z,44.70
2018-03-17T23:11:24.528Z,44.70
2018-03-17T23:13:52.567Z,44.80
2018-03-17T23:16:20.615Z,44.80
2018-03-17T23:18:48.657Z,44.80
2018-03-17T23:21:16.708Z,44.90
2018-03-17T23:23:44.770Z,44.80
2018-03-17T23:26:12.795Z,44.90
2018-03-17T23:28:40.832Z,44.90
2018-03-17T23:31:08.889Z,45.00
2018-03-17T23:33:36.921Z,44.90
2018-03-17T23:36:05.016Z,44.90
2018-03-17T23:38:33.045Z,45.00
2018-03-17T23:41:01.074Z,45.10
2018-03-17T23:43:29.128Z,45.20
2018-03-17T23:45:57.182Z,45.30
2018-03-17T23:48:25.999Z,45.90
2018-03-17T23:50:54.044Z,45.20
2018-03-17T23:53:22.082Z,45.30
2018-03-17T23:55:50.364Z,45.40
2018-03-17T23:58:19.931Z,45.50
